Kuressaare current weather conditions

sailwx.info

Wind from 220 at 6 knots

Air temperature -5.0° C
Visibility: greater than 2.2 NM
Dewpoint -6.0° C
Present weather: Snow.

Last reported at 2018-Feb-23 07:50 UTC.
Time now 2018-Feb-23 08:58 UTC

Location: N 58°14' E 022°31'.
View on Google Maps.

See reports from other nearby stations

  
Tides and Currents Weather Stations Pressure Air Temp Water Temp Dewpoint Dewpoint Depression Visibility Wind Speed Wind Dir Waves Ship Positions
date/time (UTC)wind fromknots sea level pressurealtimeterstation pressurevisibilityair tempwater tempwave heightnotes
2018-Feb-23 07:50 220 6 2.2-5.0 Snow.
2018-Feb-23 06:50 210 9 1.6-6.0 Snow. Light low drifting snow.
2018-Feb-23 05:50 210 12 0.4-6.0 Heavy snow. Light low drifting snow.
2018-Feb-23 05:21 210 12 0.4-6.0 Snow.
2018-Feb-23 05:19 210 12 0.5-6.0 Snow.
2018-Feb-23 05:13 210 12 0.5-6.0 Snow.
2018-Feb-23 05:11 210 13 0.5-6.0 Snow.
2018-Feb-23 05:05 210 13 0.6-6.0 Light snow.
2018-Feb-23 04:58 210 13 0.9-6.0 Light snow.
2018-Feb-23 04:54 210 11 1.0-6.0 Light snow.
2018-Feb-23 04:50 210 8 0.8-6.0 Heavy snow.
2018-Feb-23 04:24 210 11 0.3-6.0 Heavy snow.
2018-Feb-23 04:23 210 11 0.4-6.0 Heavy snow.
2018-Feb-23 04:08 210 12 0.4-6.0 Heavy snow.
2018-Feb-23 03:54 210 13 0.4-6.0 Heavy snow.
2018-Feb-23 03:51 210 13 0.4-6.0 Heavy snow.
2018-Feb-23 03:50 210 13 1.0-6.0 Light snow.
2018-Feb-23 03:39 200 13 1.0-6.0 Light snow.
2018-Feb-23 03:34 210 13 1.2-6.0 Light snow.
2018-Feb-23 03:32 210 13 1.8-6.0 Light snow.
2018-Feb-23 03:29 210 13 2.0-6.0 Light snow.
2018-Feb-23 02:50 200 13 5.4-6.0 Snow grains.
2018-Feb-23 01:50 200 13 5.4-6.0
2018-Feb-23 00:50 210 11 5.4-6.0 Snow grains.
2018-Feb-22 23:50 210 11 5.4-6.0 Light snow.
2018-Feb-22 22:50 210 9 5.4-7.0
2018-Feb-22 21:50 210 7 5.4-7.0
2018-Feb-22 21:28 220 6 5.4-7.0
2018-Feb-22 21:07 200 6 5.4-9.0
2018-Feb-22 20:50 200 4 5.4-11.0
2018-Feb-22 20:20 190 4 5.4-10.0
2018-Feb-22 19:50 5.4-12.0
2018-Feb-22 19:18 200 5 5.4-11.0
2018-Feb-22 18:50 200 2 5.4-13.0
2018-Feb-22 17:50 230 1 5.4-13.0
2018-Feb-22 16:50 180 4 5.4-12.0
2018-Feb-22 15:50 190 5 5.4-11.0
2018-Feb-22 14:50 180 6 5.4-8.0
2018-Feb-22 13:50 170 6 5.4-6.0
2018-Feb-22 12:50 160 6 5.4-6.0
2018-Feb-22 11:50 150 5 5.4-6.0
2018-Feb-22 10:50 160 4 5.4-6.0
2018-Feb-22 09:50 160 4 5.4-7.0
2018-Feb-22 08:50 5.4-6.0
2018-Feb-22 07:50 5.4-11.0
2018-Feb-22 06:50 040 1 5.4-17.0
2018-Feb-22 05:50 050 2 5.4-18.0
2018-Feb-22 04:50 040 2 5.4-18.0
2018-Feb-22 03:50 040 2 5.4-18.0
2018-Feb-22 02:50 030 2 5.4-18.0
2018-Feb-22 01:50 060 2 5.4-17.0
2018-Feb-22 00:50 040 2 5.4-17.0
2018-Feb-21 23:50 020 4 5.4-17.0
2018-Feb-21 22:50 030 2 5.4-16.0
2018-Feb-21 21:50 030 4 5.4-16.0
2018-Feb-21 20:50 020 4 5.4-16.0
2018-Feb-21 20:27 010 5 5.4-14.0
2018-Feb-21 19:50 030 2 4.3-16.0
2018-Feb-21 18:50 020 1 3.2-15.0
2018-Feb-21 17:50 020 2 5.4-15.0
2018-Feb-21 16:50 080 2 4.9-13.0
2018-Feb-21 15:50 130 1 5.4-11.0
2018-Feb-21 14:50 110 2 5.4-8.0
2018-Feb-21 13:50 120 5 5.4-8.0
2018-Feb-21 12:50 120 5 5.4-8.0
2018-Feb-21 11:50 060 4 5.4-8.0
2018-Feb-21 10:50 090 6 4.9-8.0
2018-Feb-21 09:50 090 4 4.3-8.0
2018-Feb-21 08:50 110 4 0.8-9.0 Mist.
2018-Feb-21 08:05 090 4 3.8-10.0
2018-Feb-21 08:00 090 4 5.4-10.0